THY3LU LTFM-LIBD
Flight info
| Callsign | THY3LU |
|---|---|
| Flight time | 1h 35m |
| Altitude | 34000 |
| Route | BARPE UM603 GOLDO DCT PINDO DCT PAPIZ/N0360F180 P92 KAPPO L612 DOLON |
| Aircraft | A321/M-SDE3FGHIRWY/LB1 |
Departure
| Time | 2026-05-04 17:54 |
|---|---|
| Airport | İstanbul Airport (LTFM) |
Arrival
| Time | 2026-05-04 19:30 |
|---|---|
| Airport | Bari Karol Wojtyła International Airport (LIBD) |
| Time | Latitude | Longitude | Altitude | Speed | Heading |
|---|---|---|---|---|---|
| 2026-05-04 17:16 | 41.26371 | 28.73837 | 334 ft | 0 kts | 243° |
| 2026-05-04 17:40 | 41.26378 | 28.73856 | 330 ft | 4 kts | 243° |
| 2026-05-04 17:40 | 41.26389 | 28.73886 | 330 ft | 2 kts | 243° |
| 2026-05-04 17:40 | 41.26400 | 28.73912 | 329 ft | 4 kts | 227° |
| 2026-05-04 17:41 | 41.26421 | 28.73930 | 331 ft | 4 kts | 182° |
| 2026-05-04 17:41 | 41.26444 | 28.73924 | 329 ft | 4 kts | 160° |
| 2026-05-04 17:41 | 41.26453 | 28.73920 | 330 ft | 0 kts | 160° |
| 2026-05-04 17:45 | 41.26452 | 28.73920 | 330 ft | 1 kts | 160° |
| 2026-05-04 17:45 | 41.26441 | 28.73925 | 329 ft | 2 kts | 158° |
| 2026-05-04 17:45 | 41.26423 | 28.73943 | 330 ft | 5 kts | 135° |
| 2026-05-04 17:45 | 41.26427 | 28.74011 | 329 ft | 10 kts | 45° |
| 2026-05-04 17:46 | 41.26493 | 28.74026 | 330 ft | 10 kts | 359° |
| 2026-05-04 17:46 | 41.26567 | 28.74024 | 333 ft | 11 kts | 358° |
| 2026-05-04 17:46 | 41.26648 | 28.74022 | 331 ft | 12 kts | 359° |
| 2026-05-04 17:46 | 41.26735 | 28.74020 | 331 ft | 13 kts | 359° |
| 2026-05-04 17:47 | 41.26828 | 28.74018 | 333 ft | 14 kts | 359° |
| 2026-05-04 17:47 | 41.26925 | 28.74015 | 333 ft | 14 kts | 359° |
| 2026-05-04 17:47 | 41.27019 | 28.74011 | 331 ft | 10 kts | 350° |
| 2026-05-04 17:47 | 41.27052 | 28.73934 | 332 ft | 11 kts | 272° |
| 2026-05-04 17:48 | 41.27051 | 28.73831 | 334 ft | 12 kts | 269° |
| 2026-05-04 17:48 | 41.27050 | 28.73721 | 334 ft | 13 kts | 269° |
| 2026-05-04 17:48 | 41.27048 | 28.73600 | 332 ft | 13 kts | 269° |
| 2026-05-04 17:48 | 41.27046 | 28.73472 | 333 ft | 14 kts | 269° |
| 2026-05-04 17:49 | 41.27045 | 28.73337 | 331 ft | 15 kts | 269° |
| 2026-05-04 17:49 | 41.27043 | 28.73196 | 334 ft | 16 kts | 269° |
| 2026-05-04 17:49 | 41.27041 | 28.73054 | 334 ft | 11 kts | 269° |
| 2026-05-04 17:49 | 41.26996 | 28.72987 | 330 ft | 11 kts | 189° |
| 2026-05-04 17:50 | 41.26915 | 28.72987 | 332 ft | 12 kts | 179° |
| 2026-05-04 17:50 | 41.26828 | 28.72990 | 332 ft | 13 kts | 179° |
| 2026-05-04 17:50 | 41.26747 | 28.72986 | 332 ft | 10 kts | 200° |
| 2026-05-04 17:50 | 41.26721 | 28.72953 | 331 ft | 1 kts | 243° |
| 2026-05-04 17:51 | 41.26721 | 28.72952 | 331 ft | 0 kts | 243° |
| 2026-05-04 17:51 | 41.26719 | 28.72940 | 332 ft | 5 kts | 256° |
| 2026-05-04 17:51 | 41.26716 | 28.72857 | 334 ft | 13 kts | 269° |
| 2026-05-04 17:52 | 41.26713 | 28.72715 | 330 ft | 16 kts | 269° |
| 2026-05-04 17:52 | 41.26712 | 28.72576 | 330 ft | 10 kts | 271° |
| 2026-05-04 17:52 | 41.26749 | 28.72518 | 334 ft | 8 kts | 341° |
| 2026-05-04 17:52 | 41.26786 | 28.72513 | 329 ft | 0 kts | 359° |
| 2026-05-04 17:53 | 41.26788 | 28.72513 | 334 ft | 1 kts | 359° |
| 2026-05-04 17:53 | 41.26840 | 28.72512 | 332 ft | 29 kts | 359° |
| 2026-05-04 17:54 | 41.27292 | 28.72500 | 333 ft | 98 kts | 359° |
| 2026-05-04 17:54 | 41.28174 | 28.72480 | 334 ft | 153 kts | 359° |
| 2026-05-04 17:54 | 41.29330 | 28.72469 | 674 ft | 169 kts | 357° |
| 2026-05-04 17:54 | 41.30507 | 28.72458 | 1392 ft | 169 kts | 0° |
| 2026-05-04 17:55 | 41.31677 | 28.72452 | 2143 ft | 168 kts | 2° |
| 2026-05-04 17:55 | 41.32453 | 28.72458 | 2521 ft | 168 kts | 2° |
| 2026-05-04 17:55 | 41.33617 | 28.72473 | 3099 ft | 167 kts | 1° |
| 2026-05-04 17:55 | 41.34778 | 28.72469 | 3589 ft | 170 kts | 1° |
| 2026-05-04 17:56 | 41.36479 | 28.72470 | 3802 ft | 201 kts | 358° |
| 2026-05-04 17:56 | 41.37441 | 28.72218 | 3924 ft | 220 kts | 337° |
| 2026-05-04 17:56 | 41.38839 | 28.70053 | 4427 ft | 257 kts | 296° |
| 2026-05-04 17:56 | 41.39110 | 28.68445 | 4874 ft | 270 kts | 279° |
| 2026-05-04 17:57 | 41.38800 | 28.65920 | 5611 ft | 285 kts | 258° |
| 2026-05-04 17:57 | 41.38157 | 28.63429 | 6484 ft | 284 kts | 257° |
| 2026-05-04 17:57 | 41.37498 | 28.60970 | 7204 ft | 287 kts | 257° |
| 2026-05-04 17:57 | 41.36811 | 28.58447 | 7885 ft | 292 kts | 257° |
| 2026-05-04 17:58 | 41.36112 | 28.55878 | 8547 ft | 298 kts | 257° |
| 2026-05-04 17:58 | 41.35405 | 28.53264 | 9224 ft | 302 kts | 257° |
| 2026-05-04 17:58 | 41.34690 | 28.50610 | 9891 ft | 308 kts | 257° |
| 2026-05-04 17:58 | 41.33960 | 28.47877 | 10317 ft | 322 kts | 257° |
| 2026-05-04 17:59 | 41.33191 | 28.44969 | 10454 ft | 344 kts | 256° |
| 2026-05-04 17:59 | 41.32373 | 28.41883 | 10701 ft | 361 kts | 255° |
| 2026-05-04 17:59 | 41.30651 | 28.35513 | 11922 ft | 368 kts | 255° |
| 2026-05-04 18:00 | 41.29779 | 28.32303 | 12580 ft | 371 kts | 255° |
| 2026-05-04 18:00 | 41.28911 | 28.29109 | 13185 ft | 374 kts | 254° |
| 2026-05-04 18:00 | 41.28026 | 28.25834 | 13792 ft | 378 kts | 254° |
| 2026-05-04 18:00 | 41.27136 | 28.22528 | 14328 ft | 382 kts | 254° |
| 2026-05-04 18:01 | 41.26237 | 28.19189 | 14865 ft | 386 kts | 254° |
| 2026-05-04 18:01 | 41.25326 | 28.15815 | 15412 ft | 390 kts | 254° |
| 2026-05-04 18:01 | 41.24407 | 28.12413 | 15938 ft | 393 kts | 254° |
| 2026-05-04 18:02 | 41.22533 | 28.05499 | 16948 ft | 402 kts | 254° |
| 2026-05-04 18:02 | 41.21576 | 28.01985 | 17399 ft | 407 kts | 254° |
| 2026-05-04 18:02 | 41.20605 | 27.98426 | 17897 ft | 412 kts | 254° |
| 2026-05-04 18:02 | 41.19623 | 27.94837 | 18395 ft | 416 kts | 254° |
| 2026-05-04 18:03 | 41.18631 | 27.91208 | 18858 ft | 419 kts | 254° |
| 2026-05-04 18:03 | 41.17637 | 27.87568 | 19322 ft | 422 kts | 254° |
| 2026-05-04 18:03 | 41.16630 | 27.83894 | 19817 ft | 424 kts | 254° |
| 2026-05-04 18:03 | 41.15619 | 27.80206 | 20306 ft | 427 kts | 254° |
| 2026-05-04 18:04 | 41.14599 | 27.76491 | 20802 ft | 429 kts | 254° |
| 2026-05-04 18:04 | 41.13574 | 27.72760 | 21272 ft | 432 kts | 254° |
| 2026-05-04 18:04 | 41.11495 | 27.65231 | 22227 ft | 437 kts | 254° |
| 2026-05-04 18:05 | 41.10458 | 27.61484 | 22678 ft | 439 kts | 254° |
| 2026-05-04 18:05 | 41.09401 | 27.57674 | 23111 ft | 442 kts | 254° |
| 2026-05-04 18:05 | 41.08339 | 27.53843 | 23529 ft | 444 kts | 254° |
| 2026-05-04 18:05 | 41.07270 | 27.49992 | 23894 ft | 447 kts | 254° |
| 2026-05-04 18:06 | 41.05112 | 27.42235 | 24616 ft | 450 kts | 253° |
| 2026-05-04 18:06 | 41.04024 | 27.38344 | 24976 ft | 452 kts | 253° |
| 2026-05-04 18:06 | 41.02927 | 27.34430 | 25332 ft | 454 kts | 253° |
| 2026-05-04 18:07 | 41.01826 | 27.30500 | 25686 ft | 456 kts | 253° |
| 2026-05-04 18:07 | 41.00723 | 27.26560 | 26032 ft | 458 kts | 253° |
| 2026-05-04 18:07 | 40.99614 | 27.22597 | 26368 ft | 459 kts | 253° |
| 2026-05-04 18:07 | 40.98502 | 27.18632 | 26696 ft | 462 kts | 253° |
| 2026-05-04 18:08 | 40.97376 | 27.14642 | 27035 ft | 463 kts | 252° |
| 2026-05-04 18:08 | 40.96249 | 27.10653 | 27401 ft | 464 kts | 252° |
| 2026-05-04 18:08 | 40.95117 | 27.06649 | 27735 ft | 466 kts | 252° |
| 2026-05-04 18:08 | 40.93981 | 27.02633 | 28056 ft | 467 kts | 252° |
| 2026-05-04 18:09 | 40.92418 | 26.94336 | 28688 ft | 464 kts | 268° |
| 2026-05-04 18:09 | 40.91947 | 26.85862 | 29257 ft | 467 kts | 269° |
| 2026-05-04 18:10 | 40.91699 | 26.81576 | 29597 ft | 468 kts | 268° |
| 2026-05-04 18:10 | 40.91442 | 26.77277 | 29913 ft | 470 kts | 268° |
| 2026-05-04 18:10 | 40.91178 | 26.72948 | 30202 ft | 472 kts | 268° |
| 2026-05-04 18:10 | 40.90913 | 26.68616 | 30465 ft | 474 kts | 268° |
| 2026-05-04 18:11 | 40.90648 | 26.64270 | 30802 ft | 473 kts | 268° |
| 2026-05-04 18:11 | 40.90385 | 26.59943 | 31169 ft | 472 kts | 268° |
| 2026-05-04 18:11 | 40.90125 | 26.55630 | 31528 ft | 470 kts | 268° |
| 2026-05-04 18:11 | 40.89866 | 26.51338 | 31935 ft | 468 kts | 267° |
| 2026-05-04 18:12 | 40.89606 | 26.47058 | 32330 ft | 466 kts | 267° |
| 2026-05-04 18:12 | 40.89347 | 26.42803 | 32708 ft | 464 kts | 267° |
| 2026-05-04 18:12 | 40.89086 | 26.38561 | 33075 ft | 463 kts | 267° |
| 2026-05-04 18:12 | 40.88824 | 26.34332 | 33431 ft | 461 kts | 267° |
| 2026-05-04 18:13 | 40.88563 | 26.30171 | 33780 ft | 460 kts | 267° |
| 2026-05-04 18:13 | 40.88296 | 26.25954 | 34020 ft | 460 kts | 267° |
| 2026-05-04 18:14 | 40.87580 | 26.13420 | 34053 ft | 454 kts | 267° |
| 2026-05-04 18:14 | 40.87156 | 26.05103 | 34058 ft | 454 kts | 268° |
| 2026-05-04 18:15 | 40.86257 | 25.88467 | 34062 ft | 454 kts | 267° |
| 2026-05-04 18:16 | 40.85784 | 25.80135 | 34057 ft | 455 kts | 267° |
| 2026-05-04 18:16 | 40.85305 | 25.71798 | 34075 ft | 455 kts | 267° |
| 2026-05-04 18:17 | 40.84591 | 25.59324 | 34056 ft | 456 kts | 267° |
| 2026-05-04 18:18 | 40.83848 | 25.46781 | 34078 ft | 456 kts | 267° |
| 2026-05-04 18:18 | 40.83349 | 25.38422 | 34077 ft | 456 kts | 267° |
| 2026-05-04 18:19 | 40.82587 | 25.25897 | 34082 ft | 455 kts | 266° |
| 2026-05-04 18:19 | 40.82071 | 25.17572 | 34083 ft | 454 kts | 266° |
| 2026-05-04 18:20 | 40.81555 | 25.09261 | 34083 ft | 454 kts | 266° |
| 2026-05-04 18:20 | 40.81039 | 25.00953 | 34078 ft | 454 kts | 266° |
| 2026-05-04 18:21 | 40.80512 | 24.92669 | 34092 ft | 451 kts | 266° |
| 2026-05-04 18:21 | 40.79975 | 24.84439 | 34091 ft | 449 kts | 266° |
| 2026-05-04 18:22 | 40.79439 | 24.76288 | 34087 ft | 448 kts | 266° |
| 2026-05-04 18:22 | 40.78897 | 24.68110 | 34083 ft | 447 kts | 266° |
| 2026-05-04 18:23 | 40.78347 | 24.59956 | 34081 ft | 446 kts | 266° |
| 2026-05-04 18:23 | 40.77805 | 24.51799 | 34084 ft | 445 kts | 266° |
| 2026-05-04 18:24 | 40.77261 | 24.43657 | 34080 ft | 445 kts | 266° |
| 2026-05-04 18:24 | 40.76701 | 24.35573 | 34075 ft | 445 kts | 266° |
| 2026-05-04 18:25 | 40.76131 | 24.27441 | 34081 ft | 444 kts | 266° |
| 2026-05-04 18:25 | 40.75562 | 24.19329 | 34083 ft | 444 kts | 266° |
| 2026-05-04 18:26 | 40.74988 | 24.11230 | 34079 ft | 443 kts | 266° |
| 2026-05-04 18:26 | 40.74407 | 24.03138 | 34078 ft | 443 kts | 265° |
| 2026-05-04 18:27 | 40.73822 | 23.95059 | 34086 ft | 442 kts | 265° |
| 2026-05-04 18:27 | 40.73235 | 23.86992 | 34087 ft | 442 kts | 265° |
| 2026-05-04 18:28 | 40.72642 | 23.78932 | 34087 ft | 441 kts | 265° |
| 2026-05-04 18:28 | 40.72039 | 23.70943 | 34086 ft | 441 kts | 265° |
| 2026-05-04 18:29 | 40.71438 | 23.62891 | 34087 ft | 441 kts | 265° |
| 2026-05-04 18:29 | 40.70830 | 23.54849 | 34091 ft | 441 kts | 265° |
| 2026-05-04 18:30 | 40.69900 | 23.42768 | 34086 ft | 442 kts | 265° |
| 2026-05-04 18:31 | 40.69280 | 23.34693 | 34086 ft | 443 kts | 264° |
| 2026-05-04 18:31 | 40.68645 | 23.26616 | 34087 ft | 444 kts | 264° |
| 2026-05-04 18:32 | 40.67998 | 23.18523 | 34088 ft | 444 kts | 264° |
| 2026-05-04 18:32 | 40.67348 | 23.10425 | 34087 ft | 444 kts | 265° |
| 2026-05-04 18:33 | 40.66707 | 23.02375 | 34095 ft | 444 kts | 265° |
| 2026-05-04 18:33 | 40.66055 | 22.94287 | 34100 ft | 444 kts | 265° |
| 2026-05-04 18:34 | 40.65392 | 22.86209 | 34109 ft | 444 kts | 265° |
| 2026-05-04 18:34 | 40.64722 | 22.78127 | 34088 ft | 444 kts | 265° |
| 2026-05-04 18:35 | 40.64046 | 22.70054 | 34098 ft | 443 kts | 267° |
| 2026-05-04 18:35 | 40.63366 | 22.61984 | 34099 ft | 443 kts | 267° |
| 2026-05-04 18:36 | 40.62683 | 22.53917 | 34097 ft | 443 kts | 267° |
| 2026-05-04 18:36 | 40.61994 | 22.45852 | 34099 ft | 443 kts | 267° |
| 2026-05-04 18:37 | 40.61292 | 22.37797 | 34106 ft | 442 kts | 268° |
| 2026-05-04 18:37 | 40.60593 | 22.29760 | 34117 ft | 441 kts | 268° |
| 2026-05-04 18:38 | 40.59899 | 22.21744 | 34124 ft | 441 kts | 268° |
| 2026-05-04 18:38 | 40.59191 | 22.13735 | 34132 ft | 441 kts | 268° |
| 2026-05-04 18:39 | 40.58473 | 22.05730 | 34128 ft | 440 kts | 269° |
| 2026-05-04 18:39 | 40.57752 | 21.97739 | 34133 ft | 440 kts | 269° |
| 2026-05-04 18:40 | 40.57031 | 21.89750 | 34146 ft | 440 kts | 269° |
| 2026-05-04 18:40 | 40.56310 | 21.81802 | 34140 ft | 440 kts | 269° |
| 2026-05-04 18:41 | 40.55578 | 21.73815 | 34128 ft | 439 kts | 269° |
| 2026-05-04 18:41 | 40.54841 | 21.65840 | 34139 ft | 439 kts | 269° |
| 2026-05-04 18:42 | 40.54096 | 21.57872 | 34144 ft | 439 kts | 269° |
| 2026-05-04 18:42 | 40.53349 | 21.49918 | 34146 ft | 438 kts | 269° |
| 2026-05-04 18:43 | 40.52598 | 21.41964 | 34150 ft | 438 kts | 269° |
| 2026-05-04 18:43 | 40.51839 | 21.34023 | 34149 ft | 437 kts | 269° |
| 2026-05-04 18:44 | 40.51073 | 21.26086 | 34151 ft | 437 kts | 268° |
| 2026-05-04 18:44 | 40.50301 | 21.18158 | 34149 ft | 437 kts | 268° |
| 2026-05-04 18:45 | 40.49534 | 21.10288 | 34131 ft | 437 kts | 268° |
| 2026-05-04 18:45 | 40.48757 | 21.02357 | 34147 ft | 437 kts | 268° |
| 2026-05-04 18:46 | 40.48550 | 20.94486 | 34148 ft | 426 kts | 282° |
| 2026-05-04 18:46 | 40.49929 | 20.87012 | 34148 ft | 420 kts | 290° |
| 2026-05-04 18:47 | 40.51515 | 20.79630 | 34115 ft | 420 kts | 290° |
| 2026-05-04 18:47 | 40.53086 | 20.72237 | 34135 ft | 420 kts | 290° |
| 2026-05-04 18:48 | 40.54397 | 20.66041 | 34147 ft | 420 kts | 290° |
| 2026-05-04 18:48 | 40.55955 | 20.58660 | 34146 ft | 419 kts | 290° |
| 2026-05-04 18:49 | 40.57507 | 20.51277 | 34149 ft | 419 kts | 290° |
| 2026-05-04 18:49 | 40.59062 | 20.43907 | 34136 ft | 418 kts | 290° |
| 2026-05-04 18:50 | 40.60609 | 20.36513 | 34152 ft | 418 kts | 290° |
| 2026-05-04 18:50 | 40.62150 | 20.29129 | 34155 ft | 418 kts | 290° |
| 2026-05-04 18:51 | 40.63677 | 20.21795 | 34159 ft | 419 kts | 289° |
| 2026-05-04 18:51 | 40.65207 | 20.14405 | 34162 ft | 418 kts | 289° |
| 2026-05-04 18:52 | 40.66727 | 20.07025 | 34153 ft | 417 kts | 290° |
| 2026-05-04 18:52 | 40.68237 | 19.99665 | 34162 ft | 415 kts | 289° |
| 2026-05-04 18:53 | 40.69748 | 19.92323 | 34162 ft | 415 kts | 289° |
| 2026-05-04 18:53 | 40.71257 | 19.84939 | 34160 ft | 414 kts | 289° |
| 2026-05-04 18:54 | 40.72749 | 19.77625 | 34143 ft | 414 kts | 289° |
| 2026-05-04 18:54 | 40.74223 | 19.70354 | 34159 ft | 413 kts | 289° |
| 2026-05-04 18:55 | 40.75696 | 19.63045 | 34159 ft | 412 kts | 289° |
| 2026-05-04 18:55 | 40.77900 | 19.52102 | 34164 ft | 411 kts | 289° |
| 2026-05-04 18:56 | 40.79365 | 19.44822 | 34149 ft | 411 kts | 289° |
| 2026-05-04 18:56 | 40.80816 | 19.37527 | 34151 ft | 411 kts | 289° |
| 2026-05-04 18:57 | 40.82273 | 19.30226 | 34150 ft | 411 kts | 289° |
| 2026-05-04 18:57 | 40.83717 | 19.22936 | 34149 ft | 411 kts | 289° |
| 2026-05-04 18:58 | 40.85158 | 19.15637 | 34152 ft | 411 kts | 289° |
| 2026-05-04 18:58 | 40.86593 | 19.08328 | 34136 ft | 411 kts | 288° |
| 2026-05-04 18:59 | 40.88021 | 19.01022 | 34145 ft | 411 kts | 288° |
| 2026-05-04 18:59 | 40.89151 | 18.93618 | 34147 ft | 416 kts | 277° |
| 2026-05-04 19:00 | 40.89199 | 18.85956 | 34150 ft | 418 kts | 275° |
| 2026-05-04 19:00 | 40.89213 | 18.78279 | 34153 ft | 418 kts | 275° |
| 2026-05-04 19:01 | 40.89237 | 18.70596 | 34148 ft | 417 kts | 274° |
| 2026-05-04 19:01 | 40.89256 | 18.62986 | 34154 ft | 417 kts | 274° |
| 2026-05-04 19:02 | 40.89259 | 18.55338 | 34156 ft | 416 kts | 274° |
| 2026-05-04 19:02 | 40.89256 | 18.51516 | 33982 ft | 414 kts | 274° |
| 2026-05-04 19:02 | 40.89253 | 18.47748 | 33620 ft | 407 kts | 274° |
| 2026-05-04 19:03 | 40.89248 | 18.44037 | 33274 ft | 401 kts | 274° |
| 2026-05-04 19:03 | 40.89244 | 18.40364 | 32918 ft | 399 kts | 274° |
| 2026-05-04 19:03 | 40.89242 | 18.36708 | 32576 ft | 397 kts | 274° |
| 2026-05-04 19:03 | 40.89239 | 18.33061 | 32193 ft | 395 kts | 274° |
| 2026-05-04 19:04 | 40.89236 | 18.29440 | 31756 ft | 393 kts | 274° |
| 2026-05-04 19:04 | 40.89232 | 18.25844 | 31275 ft | 391 kts | 274° |
| 2026-05-04 19:04 | 40.89226 | 18.22253 | 30817 ft | 389 kts | 274° |
| 2026-05-04 19:04 | 40.89219 | 18.18704 | 30392 ft | 385 kts | 274° |
| 2026-05-04 19:05 | 40.89210 | 18.15174 | 29922 ft | 383 kts | 274° |
| 2026-05-04 19:05 | 40.89201 | 18.11658 | 29424 ft | 380 kts | 274° |
| 2026-05-04 19:05 | 40.89188 | 18.08176 | 28947 ft | 378 kts | 274° |
| 2026-05-04 19:05 | 40.89174 | 18.04717 | 28487 ft | 375 kts | 274° |
| 2026-05-04 19:06 | 40.89160 | 18.01276 | 28047 ft | 373 kts | 274° |
| 2026-05-04 19:06 | 40.89146 | 17.97861 | 27619 ft | 371 kts | 274° |
| 2026-05-04 19:06 | 40.89131 | 17.94474 | 27206 ft | 368 kts | 274° |
| 2026-05-04 19:06 | 40.89115 | 17.91091 | 26800 ft | 366 kts | 274° |
| 2026-05-04 19:07 | 40.89097 | 17.87735 | 26382 ft | 364 kts | 274° |
| 2026-05-04 19:07 | 40.89077 | 17.84397 | 25965 ft | 362 kts | 274° |
| 2026-05-04 19:07 | 40.89058 | 17.81078 | 25561 ft | 360 kts | 274° |
| 2026-05-04 19:07 | 40.89038 | 17.77778 | 25157 ft | 358 kts | 273° |
| 2026-05-04 19:08 | 40.89016 | 17.74495 | 24755 ft | 356 kts | 273° |
| 2026-05-04 19:08 | 40.88995 | 17.71231 | 24343 ft | 354 kts | 273° |
| 2026-05-04 19:08 | 40.88973 | 17.67985 | 23943 ft | 352 kts | 273° |
| 2026-05-04 19:08 | 40.88950 | 17.64761 | 23512 ft | 350 kts | 273° |
| 2026-05-04 19:09 | 40.88924 | 17.61550 | 23032 ft | 349 kts | 273° |
| 2026-05-04 19:09 | 40.88745 | 17.58357 | 22564 ft | 350 kts | 263° |
| 2026-05-04 19:09 | 40.88274 | 17.55207 | 22097 ft | 349 kts | 262° |
| 2026-05-04 19:09 | 40.87800 | 17.52076 | 21650 ft | 347 kts | 262° |
| 2026-05-04 19:10 | 40.87327 | 17.48958 | 21207 ft | 345 kts | 262° |
| 2026-05-04 19:10 | 40.86969 | 17.45846 | 20771 ft | 340 kts | 271° |
| 2026-05-04 19:10 | 40.87107 | 17.42765 | 20336 ft | 334 kts | 283° |
| 2026-05-04 19:10 | 40.87730 | 17.39871 | 19902 ft | 330 kts | 294° |
| 2026-05-04 19:11 | 40.88780 | 17.37194 | 19426 ft | 329 kts | 301° |
| 2026-05-04 19:11 | 40.89926 | 17.34576 | 18978 ft | 329 kts | 301° |
| 2026-05-04 19:11 | 40.91065 | 17.31961 | 18549 ft | 328 kts | 301° |
| 2026-05-04 19:11 | 40.92194 | 17.29351 | 18094 ft | 327 kts | 300° |
| 2026-05-04 19:12 | 40.93321 | 17.26744 | 17622 ft | 326 kts | 300° |
| 2026-05-04 19:12 | 40.95561 | 17.21578 | 16768 ft | 322 kts | 301° |
| 2026-05-04 19:12 | 40.96674 | 17.19012 | 16346 ft | 321 kts | 300° |
| 2026-05-04 19:13 | 40.97780 | 17.16456 | 15932 ft | 319 kts | 300° |
| 2026-05-04 19:13 | 40.98878 | 17.13909 | 15522 ft | 318 kts | 300° |
| 2026-05-04 19:13 | 40.99973 | 17.11374 | 15115 ft | 316 kts | 300° |
| 2026-05-04 19:13 | 41.01063 | 17.08850 | 14718 ft | 315 kts | 300° |
| 2026-05-04 19:14 | 41.02148 | 17.06335 | 14323 ft | 314 kts | 300° |
| 2026-05-04 19:14 | 41.03234 | 17.03834 | 13944 ft | 312 kts | 300° |
| 2026-05-04 19:14 | 41.04334 | 17.01361 | 13507 ft | 311 kts | 301° |
| 2026-05-04 19:14 | 41.05435 | 16.98895 | 13079 ft | 310 kts | 301° |
| 2026-05-04 19:15 | 41.06527 | 16.96439 | 12684 ft | 309 kts | 301° |
| 2026-05-04 19:15 | 41.07540 | 16.93944 | 12281 ft | 307 kts | 290° |
| 2026-05-04 19:15 | 41.07848 | 16.91174 | 11890 ft | 306 kts | 265° |
| 2026-05-04 19:15 | 41.07424 | 16.88404 | 11460 ft | 307 kts | 256° |
| 2026-05-04 19:16 | 41.06854 | 16.85679 | 11031 ft | 307 kts | 255° |
| 2026-05-04 19:16 | 41.06275 | 16.82965 | 10643 ft | 306 kts | 255° |
| 2026-05-04 19:16 | 41.05708 | 16.80286 | 10463 ft | 298 kts | 255° |
| 2026-05-04 19:16 | 41.05153 | 16.77668 | 10196 ft | 293 kts | 255° |
| 2026-05-04 19:17 | 41.04606 | 16.75089 | 9929 ft | 289 kts | 255° |
| 2026-05-04 19:17 | 41.04065 | 16.72542 | 9642 ft | 285 kts | 255° |
| 2026-05-04 19:17 | 41.03529 | 16.70033 | 9357 ft | 281 kts | 255° |
| 2026-05-04 19:17 | 41.03005 | 16.67555 | 9073 ft | 277 kts | 255° |
| 2026-05-04 19:18 | 41.02500 | 16.65142 | 8791 ft | 274 kts | 255° |
| 2026-05-04 19:18 | 41.01997 | 16.62719 | 8530 ft | 271 kts | 255° |
| 2026-05-04 19:18 | 41.01499 | 16.60325 | 8251 ft | 269 kts | 255° |
| 2026-05-04 19:18 | 41.01005 | 16.57938 | 7942 ft | 268 kts | 255° |
| 2026-05-04 19:19 | 41.00516 | 16.55571 | 7615 ft | 266 kts | 255° |
| 2026-05-04 19:19 | 41.00030 | 16.53209 | 7296 ft | 265 kts | 255° |
| 2026-05-04 19:19 | 40.99547 | 16.50867 | 6973 ft | 263 kts | 255° |
| 2026-05-04 19:19 | 40.99057 | 16.48540 | 6680 ft | 262 kts | 255° |
| 2026-05-04 19:20 | 40.98569 | 16.46231 | 6411 ft | 259 kts | 255° |
| 2026-05-04 19:20 | 40.98091 | 16.43970 | 6129 ft | 252 kts | 255° |
| 2026-05-04 19:20 | 40.97626 | 16.41770 | 5863 ft | 246 kts | 255° |
| 2026-05-04 19:20 | 40.97171 | 16.39607 | 5599 ft | 241 kts | 255° |
| 2026-05-04 19:21 | 40.96727 | 16.37500 | 5323 ft | 234 kts | 255° |
| 2026-05-04 19:21 | 40.96354 | 16.35430 | 5033 ft | 229 kts | 266° |
| 2026-05-04 19:21 | 40.96686 | 16.33418 | 4873 ft | 227 kts | 301° |
| 2026-05-04 19:21 | 40.97805 | 16.31988 | 4759 ft | 227 kts | 334° |
| 2026-05-04 19:22 | 40.99331 | 16.31604 | 4622 ft | 226 kts | 7° |
| 2026-05-04 19:22 | 41.00787 | 16.32322 | 4499 ft | 226 kts | 36° |
| 2026-05-04 19:22 | 41.01778 | 16.33841 | 4346 ft | 214 kts | 65° |
| 2026-05-04 19:22 | 41.02303 | 16.35612 | 4270 ft | 201 kts | 69° |
| 2026-05-04 19:23 | 41.02792 | 16.37316 | 4146 ft | 197 kts | 69° |
| 2026-05-04 19:23 | 41.03277 | 16.39005 | 4063 ft | 195 kts | 69° |
| 2026-05-04 19:23 | 41.03758 | 16.40676 | 4026 ft | 194 kts | 69° |
| 2026-05-04 19:23 | 41.04238 | 16.42349 | 4028 ft | 194 kts | 69° |
| 2026-05-04 19:24 | 41.04712 | 16.43999 | 4026 ft | 194 kts | 69° |
| 2026-05-04 19:24 | 41.05191 | 16.45672 | 4027 ft | 194 kts | 69° |
| 2026-05-04 19:24 | 41.05671 | 16.47345 | 4027 ft | 194 kts | 69° |
| 2026-05-04 19:24 | 41.06152 | 16.49023 | 3997 ft | 195 kts | 69° |
| 2026-05-04 19:25 | 41.06631 | 16.50699 | 3812 ft | 194 kts | 69° |
| 2026-05-04 19:25 | 41.07108 | 16.52364 | 3573 ft | 193 kts | 69° |
| 2026-05-04 19:25 | 41.07581 | 16.54019 | 3349 ft | 192 kts | 69° |
| 2026-05-04 19:25 | 41.08052 | 16.55668 | 3084 ft | 191 kts | 70° |
| 2026-05-04 19:26 | 41.08521 | 16.57311 | 2822 ft | 190 kts | 71° |
| 2026-05-04 19:26 | 41.08988 | 16.58946 | 2581 ft | 187 kts | 71° |
| 2026-05-04 19:26 | 41.09427 | 16.60484 | 2330 ft | 172 kts | 71° |
| 2026-05-04 19:26 | 41.09829 | 16.61893 | 2118 ft | 158 kts | 71° |
| 2026-05-04 19:27 | 41.10212 | 16.63238 | 1891 ft | 154 kts | 72° |
| 2026-05-04 19:27 | 41.10588 | 16.64563 | 1696 ft | 154 kts | 71° |
| 2026-05-04 19:27 | 41.10970 | 16.65877 | 1500 ft | 152 kts | 71° |
| 2026-05-04 19:27 | 41.11336 | 16.67189 | 1302 ft | 152 kts | 71° |
| 2026-05-04 19:28 | 41.11705 | 16.68496 | 1098 ft | 151 kts | 71° |
| 2026-05-04 19:28 | 41.12071 | 16.69793 | 889 ft | 149 kts | 70° |
| 2026-05-04 19:28 | 41.12437 | 16.71070 | 713 ft | 148 kts | 71° |
| 2026-05-04 19:28 | 41.12800 | 16.72344 | 508 ft | 147 kts | 70° |
| 2026-05-04 19:29 | 41.13157 | 16.73608 | 323 ft | 146 kts | 72° |
| 2026-05-04 19:29 | 41.13514 | 16.74863 | 166 ft | 145 kts | 71° |
| 2026-05-04 19:29 | 41.13826 | 16.75968 | 152 ft | 104 kts | 69° |
| 2026-05-04 19:29 | 41.14020 | 16.76658 | 149 ft | 55 kts | 69° |
| 2026-05-04 19:30 | 41.14132 | 16.77055 | 151 ft | 44 kts | 69° |
| 2026-05-04 19:30 | 41.14206 | 16.77346 | 148 ft | 15 kts | 79° |
| 2026-05-04 19:30 | 41.14161 | 16.77419 | 153 ft | 9 kts | 177° |
| 2026-05-04 19:30 | 41.14106 | 16.77404 | 156 ft | 9 kts | 197° |
| 2026-05-04 19:31 | 41.14036 | 16.77357 | 158 ft | 13 kts | 237° |
| 2026-05-04 19:31 | 41.13994 | 16.77228 | 158 ft | 17 kts | 250° |
| 2026-05-04 19:31 | 41.13951 | 16.77071 | 158 ft | 20 kts | 250° |
| 2026-05-04 19:31 | 41.13899 | 16.76889 | 158 ft | 22 kts | 249° |
| 2026-05-04 19:32 | 41.13841 | 16.76682 | 158 ft | 25 kts | 249° |
| 2026-05-04 19:32 | 41.13776 | 16.76452 | 158 ft | 28 kts | 249° |
| 2026-05-04 19:32 | 41.13707 | 16.76209 | 158 ft | 28 kts | 249° |
| 2026-05-04 19:32 | 41.13662 | 16.76060 | 158 ft | 9 kts | 235° |
| 2026-05-04 19:33 | 41.13612 | 16.76055 | 158 ft | 6 kts | 155° |
| 2026-05-04 19:33 | 41.13585 | 16.76081 | 158 ft | 4 kts | 142° |
| 2026-05-04 19:33 | 41.13560 | 16.76117 | 158 ft | 7 kts | 120° |
| 2026-05-04 19:33 | 41.13558 | 16.76192 | 159 ft | 7 kts | 94° |
| 2026-05-04 19:34 | 41.13526 | 16.76221 | 159 ft | 5 kts | 152° |
| 2026-05-04 19:34 | 41.13503 | 16.76234 | 159 ft | 3 kts | 160° |
| 2026-05-04 19:34 | 41.13495 | 16.76238 | 159 ft | 0 kts | 160° |